Terminal Aerodrome Forecast
Issued by NWS Charleston, WV

Home | Current Version | Previous Version | Text Only | Print | Product List | Glossary On
Versions: 1 2 3 4 5 6 7 8 9 10 11 12 13 14 15 16 17 18 19 20 21 22 23 24 25 26 27 28 29 30
640
FTUS41 KRLX 240541
TAFHTS
TAF
KHTS 240541Z 2406/2506 VRB03KT 6SM -DZ BR SCT006 BKN012
     FM241200 28007KT P6SM OVC008
     FM241900 27008KT P6SM OVC015
     FM250000 23004KT P6SM BKN030
     FM250400 VRB03KT P6SM SCT050=

USA.gov is the U.S. government's official web portal to all federal, state and local government web resources and services.